Time;durP1;ratioP1;P1;durP2;ratioP2;P2;SDS_P1;SDS_P2;PMS_P1;PMS_P2;Temp;Humidity;BMP_temperature;BMP_pressure;BME280_temperature;BME280_humidity;BME280_pressure;Samples;Min_cycle;Max_cycle;Signal;HPM_P1;HPM_P2
2023/04/11 00:01:08;;;;;;;;;;;9.50;84.10;;;;;;5096011;28;19908;-72
2023/04/11 00:03:35;;;;;;;;;;;9.40;84.00;;;;;;5095930;28;19908;-73
2023/04/11 00:06:00;;;;;;;;;;;9.40;82.80;;;;;;5095902;28;19927;-72
2023/04/11 00:08:26;;;;;;;;;;;9.30;83.70;;;;;;5095725;28;19912;-72
2023/04/11 00:10:51;;;;;;;;;;;9.20;84.60;;;;;;5077686;28;20037;-72
2023/04/11 00:13:18;;;;;;;;;;;9.10;87.40;;;;;;5095835;28;20395;-73
2023/04/11 00:15:44;;;;;;;;;;;9.10;85.80;;;;;;5095654;28;19908;-73
2023/04/11 00:18:11;;;;;;;;;;;9.00;88.10;;;;;;5095655;28;19912;-73
2023/04/11 00:20:36;;;;;;;;;;;8.90;89.10;;;;;;5095876;28;19946;-72
2023/04/11 00:23:02;;;;;;;;;;;9.00;90.60;;;;;;5095650;28;19939;-71
2023/04/11 00:25:28;;;;;;;;;;;8.90;89.10;;;;;;5095672;28;19915;-74
2023/04/11 00:27:54;;;;;;;;;;;8.90;89.90;;;;;;5095408;28;20260;-72
2023/04/11 00:30:19;;;;;;;;;;;8.90;91.50;;;;;;5095407;28;19930;-73
2023/04/11 00:32:46;;;;;;;;;;;8.90;90.20;;;;;;5095557;28;19930;-72
2023/04/11 00:35:11;;;;;;;;;;;8.90;91.70;;;;;;5095340;28;20395;-73
2023/04/11 00:37:37;;;;;;;;;;;9.00;88.20;;;;;;5095503;28;19915;-73
2023/04/11 00:40:04;;;;;;;;;;;8.80;88.90;;;;;;5095018;28;19920;-72
2023/04/11 00:42:30;;;;;;;;;;;8.80;90.80;;;;;;5077071;28;20280;-72
2023/04/11 00:44:56;;;;;;;;;;;8.70;90.00;;;;;;5095136;28;19908;-72
2023/04/11 00:47:21;;;;;;;;;;;8.80;90.90;;;;;;5094964;28;19950;-72
2023/04/11 00:49:47;;;;;;;;;;;8.80;90.40;;;;;;5095039;28;19915;-72
2023/04/11 00:52:13;;;;;;;;;;;8.70;91.30;;;;;;5095027;28;19958;-73
2023/04/11 00:54:39;;;;;;;;;;;8.80;90.40;;;;;;5094944;28;20453;-72
2023/04/11 00:57:06;;;;;;;;;;;8.70;88.90;;;;;;5094803;28;19915;-73
2023/04/11 00:59:32;;;;;;;;;;;8.60;90.60;;;;;;5094849;28;19912;-72
2023/04/11 01:01:58;;;;;;;;;;;8.50;91.90;;;;;;5094251;28;19908;-74
2023/04/11 01:04:25;;;;;;;;;;;8.50;93.50;;;;;;5094820;28;20322;-72
2023/04/11 01:06:53;;;;;;;;;;;8.60;93.80;;;;;;5094800;28;20348;-73
2023/04/11 01:09:23;;;;;;;;;;;8.60;92.20;;;;;;5094726;28;19915;-73
2023/04/11 01:11:49;;;;;;;;;;;8.60;93.10;;;;;;5094628;28;19908;-72
2023/04/11 01:14:18;;;;;;;;;;;8.60;94.30;;;;;;5094743;28;20387;-73
2023/04/11 01:16:46;;;;;;;;;;;8.60;93.80;;;;;;5094511;28;19908;-72
2023/04/11 01:19:17;;;;;;;;;;;8.60;93.30;;;;;;5076276;28;20324;-73
2023/04/11 01:21:42;;;;;;;;;;;8.60;94.50;;;;;;5094885;28;19915;-70
2023/04/11 01:24:08;;;;;;;;;;;8.80;92.40;;;;;;5094554;28;19908;-71
2023/04/11 01:26:34;;;;;;;;;;;8.70;94.30;;;;;;5094664;28;19923;-73
2023/04/11 01:29:00;;;;;;;;;;;8.80;93.00;;;;;;5094325;28;20401;-73
2023/04/11 01:31:26;;;;;;;;;;;8.70;92.00;;;;;;5094321;28;19998;-73
2023/04/11 01:33:52;;;;;;;;;;;8.70;93.30;;;;;;5094447;28;19992;-72
2023/04/11 01:36:17;;;;;;;;;;;8.70;92.80;;;;;;5094438;28;19908;-72
2023/04/11 01:38:43;;;;;;;;;;;8.60;92.80;;;;;;5094447;28;20380;-74
2023/04/11 01:41:09;;;;;;;;;;;8.50;93.30;;;;;;5093843;28;20383;-73
2023/04/11 01:43:35;;;;;;;;;;;8.50;94.50;;;;;;5075995;28;19908;-74
2023/04/11 01:46:00;;;;;;;;;;;8.40;96.40;;;;;;5094041;28;19957;-74
2023/04/11 01:48:26;;;;;;;;;;;8.50;96.20;;;;;;5094203;28;19912;-72
2023/04/11 01:50:54;;;;;;;;;;;8.40;96.40;;;;;;5075859;28;19908;-72
2023/04/11 01:53:19;;;;;;;;;;;8.40;95.90;;;;;;5094243;28;19912;-73
2023/04/11 01:55:45;;;;;;;;;;;8.40;97.70;;;;;;5093938;28;19909;-73
2023/04/11 01:58:11;;;;;;;;;;;8.40;97.70;;;;;;5093826;28;20287;-73
2023/04/11 02:00:36;;;;;;;;;;;8.30;96.50;;;;;;5093887;28;20422;-73
2023/04/11 02:03:02;;;;;;;;;;;8.30;98.70;;;;;;5094020;28;19908;-72
2023/04/11 02:05:28;;;;;;;;;;;8.30;98.50;;;;;;5093880;28;19908;-72
2023/04/11 02:07:53;;;;;;;;;;;8.30;98.00;;;;;;5093738;28;19912;-72
2023/04/11 02:10:19;;;;;;;;;;;8.30;99.10;;;;;;5094195;28;19912;-72
2023/04/11 02:12:44;;;;;;;;;;;8.40;98.10;;;;;;5093800;28;19945;-71
2023/04/11 02:15:10;;;;;;;;;;;8.30;98.00;;;;;;5093742;28;19936;-72
2023/04/11 02:17:36;;;;;;;;;;;8.30;97.60;;;;;;5076624;28;19995;-71
2023/04/11 02:20:03;;;;;;;;;;;8.20;98.50;;;;;;5097924;28;19970;-73
2023/04/11 02:22:30;;;;;;;;;;;8.20;99.10;;;;;;5079735;28;19958;-72
2023/04/11 02:24:56;;;;;;;;;;;8.30;99.40;;;;;;5097851;28;19912;-72
2023/04/11 02:27:21;;;;;;;;;;;8.20;98.40;;;;;;5097784;28;20014;-72
2023/04/11 02:29:47;;;;;;;;;;;8.20;98.20;;;;;;5097839;28;19908;-73
2023/04/11 02:32:12;;;;;;;;;;;8.30;97.70;;;;;;5097695;28;20394;-72
2023/04/11 02:34:38;;;;;;;;;;;8.20;97.80;;;;;;5097811;28;19912;-72
2023/04/11 02:37:04;;;;;;;;;;;8.20;99.60;;;;;;5097587;28;19999;-71
2023/04/11 02:39:30;;;;;;;;;;;8.40;98.70;;;;;;5097377;28;19963;-72
2023/04/11 02:41:56;;;;;;;;;;;8.40;96.60;;;;;;5079125;28;19912;-72
2023/04/11 02:44:21;;;;;;;;;;;8.40;96.60;;;;;;5097892;28;19912;-71
2023/04/11 02:46:47;;;;;;;;;;;8.30;95.10;;;;;;5097591;28;19908;-72
2023/04/11 02:49:12;;;;;;;;;;;8.20;95.60;;;;;;5097476;28;19937;-70
2023/04/11 02:51:38;;;;;;;;;;;8.10;96.20;;;;;;5079128;28;20398;-72
2023/04/11 02:54:05;;;;;;;;;;;8.20;99.20;;;;;;5097671;28;19951;-71
2023/04/11 02:56:31;;;;;;;;;;;8.20;98.90;;;;;;5097537;28;19973;-73
2023/04/11 02:58:57;;;;;;;;;;;8.40;97.60;;;;;;5097165;28;19908;-71
2023/04/11 03:01:23;;;;;;;;;;;8.40;97.40;;;;;;5097168;28;20368;-71
2023/04/11 03:03:49;;;;;;;;;;;8.40;96.00;;;;;;5097339;28;19915;-72
2023/04/11 03:06:15;;;;;;;;;;;8.20;97.60;;;;;;5097257;28;19991;-73
2023/04/11 03:08:40;;;;;;;;;;;8.30;98.80;;;;;;5097069;28;20007;-72
2023/04/11 03:11:06;;;;;;;;;;;8.30;99.00;;;;;;5097117;28;19958;-72
2023/04/11 03:13:32;;;;;;;;;;;8.30;99.60;;;;;;5096916;28;20280;-72
2023/04/11 03:15:58;;;;;;;;;;;8.30;99.70;;;;;;5096891;28;19908;-72
2023/04/11 03:18:23;;;;;;;;;;;8.30;99.90;;;;;;5096990;28;20395;-71
2023/04/11 03:20:50;;;;;;;;;;;8.20;99.90;;;;;;5097405;28;19954;-73
2023/04/11 03:23:15;;;;;;;;;;;8.20;99.90;;;;;;5096723;28;19995;-72
2023/04/11 03:25:43;;;;;;;;;;;8.20;99.90;;;;;;5096937;28;20000;-73
2023/04/11 03:28:09;;;;;;;;;;;8.20;99.90;;;;;;5096595;28;20003;-72
2023/04/11 03:30:39;;;;;;;;;;;8.20;99.90;;;;;;5095377;28;19908;-72
2023/04/11 03:33:04;;;;;;;;;;;8.20;99.90;;;;;;5096684;28;20000;-73
2023/04/11 03:35:30;;;;;;;;;;;8.20;99.90;;;;;;5096469;28;19951;-72
2023/04/11 03:37:56;;;;;;;;;;;8.20;99.90;;;;;;5096607;28;19908;-71
2023/04/11 03:40:21;;;;;;;;;;;8.20;99.90;;;;;;5096297;28;19927;-72
2023/04/11 03:42:47;;;;;;;;;;;8.30;99.90;;;;;;5096401;28;19923;-72
2023/04/11 03:45:12;;;;;;;;;;;8.20;99.90;;;;;;5096301;28;19915;-72
2023/04/11 03:47:39;;;;;;;;;;;8.20;99.90;;;;;;5096245;28;19913;-72
2023/04/11 03:50:05;;;;;;;;;;;8.30;99.90;;;;;;5096409;28;19946;-71
2023/04/11 03:52:31;;;;;;;;;;;8.30;99.90;;;;;;5096232;28;19919;-72
2023/04/11 03:54:56;;;;;;;;;;;8.30;99.90;;;;;;5077916;28;19908;-72
2023/04/11 03:57:25;;;;;;;;;;;8.30;99.90;;;;;;5095795;28;19908;-71
2023/04/11 03:59:51;;;;;;;;;;;8.30;99.90;;;;;;5096401;28;20010;-72
2023/04/11 04:02:17;;;;;;;;;;;8.30;99.90;;;;;;5096022;28;20416;-73
2023/04/11 04:04:54;;;;;;;;;;;8.30;99.90;;;;;;5096038;28;20005;-71
2023/04/11 04:07:20;;;;;;;;;;;8.30;99.90;;;;;;5077217;28;20394;-72
2023/04/11 04:09:46;;;;;;;;;;;8.30;99.90;;;;;;5095841;28;20261;-72
2023/04/11 04:12:12;;;;;;;;;;;8.20;99.90;;;;;;5096144;28;19915;-72
2023/04/11 04:14:38;;;;;;;;;;;8.30;99.90;;;;;;5095849;28;20376;-72
2023/04/11 04:17:03;;;;;;;;;;;8.30;99.90;;;;;;5095836;28;20261;-72
2023/04/11 04:19:29;;;;;;;;;;;8.30;99.90;;;;;;5095599;28;19990;-73
2023/04/11 04:21:56;;;;;;;;;;;8.40;99.90;;;;;;5095847;28;20012;-72
2023/04/11 04:24:24;;;;;;;;;;;8.50;99.90;;;;;;5095555;28;19908;-72
2023/04/11 04:26:50;;;;;;;;;;;8.50;99.90;;;;;;5095602;28;19908;-74
2023/04/11 04:29:16;;;;;;;;;;;8.60;99.90;;;;;;5095431;28;20394;-72
2023/04/11 04:31:42;;;;;;;;;;;8.60;99.90;;;;;;5095450;28;19957;-72
2023/04/11 04:34:08;;;;;;;;;;;8.60;99.90;;;;;;5095527;28;20002;-72
2023/04/11 04:36:48;;;;;;;;;;;8.60;99.90;;;;;;5095436;28;19956;-72
2023/04/11 04:39:17;;;;;;;;;;;8.70;99.90;;;;;;5095190;28;19908;-71
2023/04/11 04:41:43;;;;;;;;;;;8.70;99.90;;;;;;5094421;28;19924;-71
2023/04/11 04:44:10;;;;;;;;;;;8.70;99.90;;;;;;5095308;28;19908;-72
2023/04/11 04:46:36;;;;;;;;;;;8.70;99.90;;;;;;5095137;28;19908;-72
2023/04/11 04:49:05;;;;;;;;;;;8.70;99.90;;;;;;5094953;28;20269;-73
2023/04/11 04:51:30;;;;;;;;;;;8.80;99.90;;;;;;5095187;28;20291;-73
2023/04/11 04:53:56;;;;;;;;;;;8.90;99.90;;;;;;5094961;28;19908;-73
2023/04/11 04:56:22;;;;;;;;;;;8.90;98.80;;;;;;5076755;28;19908;-73
2023/04/11 04:58:48;;;;;;;;;;;8.90;98.80;;;;;;5094861;28;20311;-72
2023/04/11 05:01:15;;;;;;;;;;;8.90;99.20;;;;;;5094937;28;19974;-71
2023/04/11 05:03:40;;;;;;;;;;;9.00;99.50;;;;;;5076536;28;19912;-72
2023/04/11 05:06:08;;;;;;;;;;;9.00;98.70;;;;;;5094847;28;19909;-71
2023/04/11 05:08:33;;;;;;;;;;;9.00;98.10;;;;;;5094662;28;20290;-72
2023/04/11 05:10:59;;;;;;;;;;;8.80;96.60;;;;;;5094698;28;19912;-72
2023/04/11 05:13:25;;;;;;;;;;;8.70;98.00;;;;;;5094615;28;19908;-72
2023/04/11 05:15:50;;;;;;;;;;;8.60;98.70;;;;;;5094977;28;19943;-71
2023/04/11 05:18:16;;;;;;;;;;;8.60;99.40;;;;;;5094800;28;19908;-71
2023/04/11 05:20:42;;;;;;;;;;;8.60;99.10;;;;;;5094591;28;19916;-73
2023/04/11 05:23:07;;;;;;;;;;;8.50;98.60;;;;;;5094405;28;20461;-72
2023/04/11 05:25:33;;;;;;;;;;;8.50;99.20;;;;;;5094582;28;19931;-73
2023/04/11 05:27:58;;;;;;;;;;;8.50;99.90;;;;;;5094495;28;20394;-71
2023/04/11 05:30:24;;;;;;;;;;;8.50;99.90;;;;;;5094344;28;19990;-72
2023/04/11 05:32:49;;;;;;;;;;;8.50;99.90;;;;;;5094286;28;19909;-71
2023/04/11 05:35:15;;;;;;;;;;;8.50;99.90;;;;;;5076077;28;19908;-71
2023/04/11 05:37:41;;;;;;;;;;;8.60;99.90;;;;;;5094578;28;19912;-71
2023/04/11 05:40:08;;;;;;;;;;;8.50;99.90;;;;;;5094203;28;19920;-73
2023/04/11 05:42:34;;;;;;;;;;;8.50;99.90;;;;;;5094154;28;19951;-72
2023/04/11 05:45:00;;;;;;;;;;;8.60;99.90;;;;;;5094034;28;20434;-72
2023/04/11 05:47:25;;;;;;;;;;;8.60;99.80;;;;;;5094035;28;19919;-73
2023/04/11 05:49:51;;;;;;;;;;;8.50;99.70;;;;;;5094203;28;19919;-72
2023/04/11 05:52:16;;;;;;;;;;;8.60;99.40;;;;;;5093334;28;20317;-74
2023/04/11 05:54:42;;;;;;;;;;;8.60;99.60;;;;;;5093813;28;19908;-74
2023/04/11 05:57:07;;;;;;;;;;;8.60;99.50;;;;;;5093868;28;19934;-73
2023/04/11 05:59:33;;;;;;;;;;;8.70;99.20;;;;;;5093902;28;19908;-74
2023/04/11 06:01:59;;;;;;;;;;;8.80;97.60;;;;;;5093896;28;20364;-73
2023/04/11 06:04:25;;;;;;;;;;;8.80;97.40;;;;;;5093864;28;19908;-74
2023/04/11 06:06:51;;;;;;;;;;;8.80;97.60;;;;;;5093793;28;19912;-73
2023/04/11 06:09:17;;;;;;;;;;;9.00;97.50;;;;;;5094035;28;20265;-72
2023/04/11 06:11:43;;;;;;;;;;;9.10;95.40;;;;;;5075663;28;19915;-73
2023/04/11 06:14:09;;;;;;;;;;;9.20;94.80;;;;;;5093845;28;19908;-74
2023/04/11 06:16:35;;;;;;;;;;;9.40;95.40;;;;;;5093765;28;19908;-74
2023/04/11 06:19:02;;;;;;;;;;;9.40;92.90;;;;;;5075688;28;19912;-73
2023/04/11 06:21:27;;;;;;;;;;;9.40;93.40;;;;;;5093705;28;20351;-73
2023/04/11 06:23:53;;;;;;;;;;;9.50;95.60;;;;;;5093682;28;19936;-73
2023/04/11 06:26:19;;;;;;;;;;;9.60;93.20;;;;;;5075594;28;19919;-72
2023/04/11 06:28:44;;;;;;;;;;;9.60;93.30;;;;;;5093545;28;19957;-72
2023/04/11 06:31:10;;;;;;;;;;;9.60;92.90;;;;;;5093642;28;19909;-73
2023/04/11 06:33:36;;;;;;;;;;;9.70;93.80;;;;;;5093665;28;19908;-73
2023/04/11 06:36:02;;;;;;;;;;;9.80;93.70;;;;;;5093963;28;19922;-71
2023/04/11 06:38:27;;;;;;;;;;;9.80;92.30;;;;;;5093724;28;19915;-75
2023/04/11 06:40:55;;;;;;;;;;;9.80;92.30;;;;;;5093407;28;19920;-72
2023/04/11 06:43:21;;;;;;;;;;;9.80;90.70;;;;;;5093618;28;19947;-73
2023/04/11 06:45:48;;;;;;;;;;;9.80;92.80;;;;;;5093338;28;19993;-73
2023/04/11 06:48:16;;;;;;;;;;;9.90;94.50;;;;;;5093603;28;19958;-73
2023/04/11 06:50:42;;;;;;;;;;;10.30;94.40;;;;;;5093451;28;19914;-73
2023/04/11 06:53:08;;;;;;;;;;;10.50;90.90;;;;;;5093527;28;19908;-72
2023/04/11 06:55:34;;;;;;;;;;;10.50;89.00;;;;;;5093374;28;20010;-72
2023/04/11 06:58:00;;;;;;;;;;;10.80;90.30;;;;;;5093329;28;19962;-74
2023/04/11 07:00:26;;;;;;;;;;;10.70;82.30;;;;;;5093370;28;19908;-72
2023/04/11 07:02:52;;;;;;;;;;;10.80;81.10;;;;;;5093278;28;19944;-73
2023/04/11 07:05:17;;;;;;;;;;;10.80;76.80;;;;;;5097028;28;19915;-72
2023/04/11 07:07:43;;;;;;;;;;;11.00;82.40;;;;;;5096992;28;19912;-72
2023/04/11 07:10:08;;;;;;;;;;;11.20;75.10;;;;;;5097021;28;19908;-73
2023/04/11 07:12:34;;;;;;;;;;;11.40;73.10;;;;;;5097396;28;19909;-73
2023/04/11 07:15:00;;;;;;;;;;;11.60;63.30;;;;;;5096514;28;19915;-73
2023/04/11 07:17:25;;;;;;;;;;;11.70;59.10;;;;;;5096742;28;19915;-72
2023/04/11 07:19:51;;;;;;;;;;;11.70;59.10;;;;;;5078564;28;20065;-72
2023/04/11 07:22:17;;;;;;;;;;;11.60;59.30;;;;;;5078586;28;19908;-72
2023/04/11 07:24:45;;;;;;;;;;;11.60;65.90;;;;;;5096720;28;19909;-72
2023/04/11 07:27:12;;;;;;;;;;;11.60;65.00;;;;;;5096906;28;19954;-71
2023/04/11 07:29:39;;;;;;;;;;;11.70;59.20;;;;;;5096580;28;19908;-73
2023/04/11 07:32:05;;;;;;;;;;;11.80;62.80;;;;;;5096590;28;20358;-75
2023/04/11 07:34:32;;;;;;;;;;;12.00;56.10;;;;;;5096936;28;19962;-74
2023/04/11 07:36:59;;;;;;;;;;;12.20;50.40;;;;;;5096822;28;19912;-73
2023/04/11 07:39:26;;;;;;;;;;;12.50;50.50;;;;;;5078133;28;19915;-73
2023/04/11 07:41:55;;;;;;;;;;;13.00;40.20;;;;;;5096869;28;19952;-73
2023/04/11 07:44:21;;;;;;;;;;;13.40;32.10;;;;;;5096382;28;20072;-73
2023/04/11 07:46:47;;;;;;;;;;;13.80;17.10;;;;;;5096337;28;19915;-72
2023/04/11 07:49:12;;;;;;;;;;;14.00;10.60;;;;;;5078049;28;19950;-74
2023/04/11 07:51:38;;;;;;;;;;;14.40;1.00;;;;;;5096240;28;20003;-73
2023/04/11 07:54:04;;;;;;;;;;;15.10;1.00;;;;;;5096342;28;19922;-72
2023/04/11 07:56:29;;;;;;;;;;;15.60;1.00;;;;;;5096139;28;19915;-73
2023/04/11 07:58:57;;;;;;;;;;;15.80;1.00;;;;;;5077902;28;19916;-73
2023/04/11 08:01:23;;;;;;;;;;;16.40;1.00;;;;;;5077830;28;20299;-73
2023/04/11 08:03:50;;;;;;;;;;;17.00;1.00;;;;;;5096021;28;19915;-75
2023/04/11 08:06:15;;;;;;;;;;;16.80;1.00;;;;;;5095976;28;19999;-73
2023/04/11 08:08:41;;;;;;;;;;;16.50;1.00;;;;;;5095879;28;20034;-73
2023/04/11 08:11:07;;;;;;;;;;;16.40;1.00;;;;;;5096217;28;19908;-73
2023/04/11 08:13:32;;;;;;;;;;;15.70;1.00;;;;;;5095844;28;19908;-73
2023/04/11 08:15:58;;;;;;;;;;;15.00;1.00;;;;;;5095231;28;20375;-73
2023/04/11 08:18:24;;;;;;;;;;;14.60;1.00;;;;;;5095729;28;19912;-73
2023/04/11 08:20:49;;;;;;;;;;;14.30;1.00;;;;;;5095678;28;19943;-73
2023/04/11 08:23:18;;;;;;;;;;;14.00;1.00;;;;;;5095781;28;20296;-73
2023/04/11 08:25:43;;;;;;;;;;;13.90;1.00;;;;;;5095801;28;19916;-72
2023/04/11 08:28:10;;;;;;;;;;;13.90;1.00;;;;;;5095612;28;19912;-72
2023/04/11 08:30:36;;;;;;;;;;;14.40;1.00;;;;;;5077215;28;20306;-74
2023/04/11 08:33:01;;;;;;;;;;;15.30;1.00;;;;;;5095746;28;19912;-71
2023/04/11 08:35:27;;;;;;;;;;;15.80;1.00;;;;;;5095303;28;20002;-73
2023/04/11 08:37:53;;;;;;;;;;;15.70;1.00;;;;;;5095296;28;19908;-72
2023/04/11 08:40:19;;;;;;;;;;;15.30;1.00;;;;;;5095152;28;19927;-73
2023/04/11 08:42:44;;;;;;;;;;;14.90;1.00;;;;;;5095249;28;20283;-73
2023/04/11 08:45:10;;;;;;;;;;;14.60;1.00;;;;;;5095256;28;20291;-73
2023/04/11 08:47:36;;;;;;;;;;;14.30;1.00;;;;;;5094973;28;20310;-73
2023/04/11 08:50:02;;;;;;;;;;;14.20;1.00;;;;;;5095043;28;19912;-73
2023/04/11 08:52:29;;;;;;;;;;;14.10;1.00;;;;;;5095051;28;19908;-73
2023/04/11 08:54:54;;;;;;;;;;;14.00;1.00;;;;;;5094998;28;19948;-75
2023/04/11 08:57:24;;;;;;;;;;;13.80;1.00;;;;;;5076627;28;20426;-73
2023/04/11 08:59:51;;;;;;;;;;;14.00;4.60;;;;;;5094833;28;19908;-73
2023/04/11 09:02:16;;;;;;;;;;;14.00;4.10;;;;;;5094785;28;19932;-72
2023/04/11 09:04:43;;;;;;;;;;;13.90;6.80;;;;;;5094781;28;20380;-72
2023/04/11 09:07:10;;;;;;;;;;;13.80;9.70;;;;;;5094659;28;19908;-71
2023/04/11 09:09:36;;;;;;;;;;;13.90;10.60;;;;;;5094706;28;20322;-71
2023/04/11 09:12:03;;;;;;;;;;;13.90;7.30;;;;;;5094936;28;19912;-73
2023/04/11 09:14:28;;;;;;;;;;;13.80;8.60;;;;;;5094690;28;19994;-73
2023/04/11 09:16:58;;;;;;;;;;;14.10;11.20;;;;;;5094657;28;19947;-73
2023/04/11 09:19:25;;;;;;;;;;;14.10;9.10;;;;;;5094604;28;20352;-71
2023/04/11 09:21:51;;;;;;;;;;;14.40;4.20;;;;;;5094850;28;20295;-72
2023/04/11 09:24:17;;;;;;;;;;;14.70;1.60;;;;;;5094671;28;20395;-72
2023/04/11 09:26:43;;;;;;;;;;;15.00;2.60;;;;;;5094544;28;19908;-72
2023/04/11 09:29:08;;;;;;;;;;;14.80;1.00;;;;;;5094339;28;20321;-72
2023/04/11 09:31:38;;;;;;;;;;;14.70;1.00;;;;;;5094744;28;19908;-74
2023/04/11 09:34:04;;;;;;;;;;;15.00;1.00;;;;;;5076087;28;20273;-73
2023/04/11 09:36:29;;;;;;;;;;;15.00;1.00;;;;;;5094031;28;19915;-73
2023/04/11 09:38:56;;;;;;;;;;;15.50;1.00;;;;;;5094142;28;19912;-72
2023/04/11 09:41:29;;;;;;;;;;;15.80;1.00;;;;;;5094222;28;19930;-74
2023/04/11 09:43:55;;;;;;;;;;;15.60;1.00;;;;;;5094165;28;19923;-72
2023/04/11 09:46:21;;;;;;;;;;;15.80;1.00;;;;;;5094045;28;19912;-72
2023/04/11 09:48:49;;;;;;;;;;;16.00;1.00;;;;;;5093957;28;19962;-74
2023/04/11 09:51:15;;;;;;;;;;;15.40;1.00;;;;;;5094001;28;19991;-72
2023/04/11 09:53:41;;;;;;;;;;;15.50;1.00;;;;;;5094044;28;19978;-72
2023/04/11 09:56:07;;;;;;;;;;;15.40;1.00;;;;;;5093954;28;20367;-74
2023/04/11 09:58:35;;;;;;;;;;;15.10;1.00;;;;;;5075715;28;19912;-74
2023/04/11 10:01:00;;;;;;;;;;;14.90;1.00;;;;;;5093897;28;19934;-73
2023/04/11 10:03:26;;;;;;;;;;;14.70;1.00;;;;;;5093882;28;19991;-73
2023/04/11 10:05:53;;;;;;;;;;;14.50;1.00;;;;;;5093899;28;19938;-73
2023/04/11 10:08:31;;;;;;;;;;;14.40;1.00;;;;;;5093798;28;19919;-72
2023/04/11 10:11:01;;;;;;;;;;;14.20;1.00;;;;;;5093847;28;20325;-73
2023/04/11 10:13:45;;;;;;;;;;;14.20;1.00;;;;;;5093734;28;19931;-74
2023/04/11 10:16:13;;;;;;;;;;;14.20;1.00;;;;;;5093610;28;19908;-73
2023/04/11 10:18:53;;;;;;;;;;;14.30;1.00;;;;;;5075651;28;19915;-73
2023/04/11 10:21:31;;;;;;;;;;;14.30;1.00;;;;;;5093763;28;19919;-75
2023/04/11 10:24:10;;;;;;;;;;;14.40;1.00;;;;;;5093696;28;19915;-73
2023/04/11 10:26:45;;;;;;;;;;;14.20;1.00;;;;;;5094043;28;19908;-73
2023/04/11 10:29:41;;;;;;;;;;;14.00;1.00;;;;;;5093667;28;19912;-72
2023/04/11 10:32:07;;;;;;;;;;;13.90;1.00;;;;;;5093711;28;19912;-73
2023/04/11 10:34:37;;;;;;;;;;;13.60;1.00;;;;;;5093792;28;20003;-72
2023/04/11 10:37:06;;;;;;;;;;;13.00;9.20;;;;;;5075381;28;19915;-72
2023/04/11 10:39:50;;;;;;;;;;;12.50;41.00;;;;;;5095784;28;19951;-73
2023/04/11 10:42:28;;;;;;;;;;;12.00;76.20;;;;;;5097573;28;19919;-72
2023/04/11 10:45:12;;;;;;;;;;;11.60;85.20;;;;;;5079286;28;19953;-73
2023/04/11 10:47:37;;;;;;;;;;;11.40;97.20;;;;;;5079179;28;20283;-74
2023/04/11 10:50:23;;;;;;;;;;;11.40;99.90;;;;;;5097422;28;19908;-74
2023/04/11 10:52:49;;;;;;;;;;;11.50;99.90;;;;;;5097218;28;19933;-73
2023/04/11 10:55:18;;;;;;;;;;;11.70;99.90;;;;;;5097566;28;20336;-74
2023/04/11 10:58:18;;;;;;;;;;;11.90;99.40;;;;;;5097203;28;19916;-73
2023/04/11 11:00:50;;;;;;;;;;;12.00;99.90;;;;;;5054262;28;20683;-73
2023/04/11 11:03:19;;;;;;;;;;;12.30;99.90;;;;;;5079565;28;19913;-74
2023/04/11 11:05:45;;;;;;;;;;;12.50;97.10;;;;;;5076793;28;20372;-72
2023/04/11 11:08:11;;;;;;;;;;;12.80;94.30;;;;;;5076720;28;19920;-73
2023/04/11 11:10:38;;;;;;;;;;;13.30;90.70;;;;;;5076747;28;19912;-73
2023/04/11 11:13:04;;;;;;;;;;;13.80;76.20;;;;;;5076796;28;19913;-74
2023/04/11 11:15:35;;;;;;;;;;;14.20;67.80;;;;;;5079091;28;19958;-73
2023/04/11 11:18:01;;;;;;;;;;;14.60;66.20;;;;;;5080086;28;20335;-74
2023/04/11 11:20:26;;;;;;;;;;;14.60;61.10;;;;;;5078340;28;19947;-73
2023/04/11 11:22:59;;;;;;;;;;;14.50;44.20;;;;;;5085960;28;19958;-74
2023/04/11 11:25:26;;;;;;;;;;;14.50;55.20;;;;;;5066856;28;19954;-74
2023/04/11 11:27:58;;;;;;;;;;;14.70;50.30;;;;;;5086035;28;19927;-73
2023/04/11 11:30:24;;;;;;;;;;;14.90;35.60;;;;;;5068757;28;19922;-74
2023/04/11 11:32:50;;;;;;;;;;;15.10;44.60;;;;;;5085542;28;19971;-74
2023/04/11 11:35:15;;;;;;;;;;;15.50;21.20;;;;;;5081330;28;20319;-73
2023/04/11 11:37:41;;;;;;;;;;;15.50;20.10;;;;;;5076232;28;19916;-73
2023/04/11 11:40:11;;;;;;;;;;;15.50;20.40;;;;;;5075980;28;19920;-73
2023/04/11 11:42:37;;;;;;;;;;;16.00;21.80;;;;;;5076207;28;20012;-74
2023/04/11 11:45:19;;;;;;;;;;;15.90;14.80;;;;;;5076241;28;20364;-74
2023/04/11 11:47:45;;;;;;;;;;;15.50;16.90;;;;;;5075962;28;19966;-73
2023/04/11 11:50:22;;;;;;;;;;;15.00;25.30;;;;;;5075286;28;19909;-73
2023/04/11 11:52:48;;;;;;;;;;;14.80;24.90;;;;;;5076107;28;20375;-72
2023/04/11 11:55:21;;;;;;;;;;;14.80;23.60;;;;;;5076120;28;20003;-74
2023/04/11 11:57:47;;;;;;;;;;;15.20;9.40;;;;;;5075877;28;19915;-74
2023/04/11 12:00:13;;;;;;;;;;;15.20;7.70;;;;;;5076235;28;19908;-73
2023/04/11 12:02:41;;;;;;;;;;;15.10;12.20;;;;;;5057761;28;19969;-73
2023/04/11 12:05:09;;;;;;;;;;;15.00;9.00;;;;;;5075784;28;19991;-73
2023/04/11 12:07:36;;;;;;;;;;;15.00;7.30;;;;;;5075698;28;19912;-73
2023/04/11 12:10:05;;;;;;;;;;;14.80;4.20;;;;;;5075676;28;19908;-73
2023/04/11 12:12:32;;;;;;;;;;;14.90;2.80;;;;;;5057645;28;19916;-75
2023/04/11 12:14:59;;;;;;;;;;;14.70;2.20;;;;;;5075815;28;19909;-73
2023/04/11 12:17:24;;;;;;;;;;;14.50;4.60;;;;;;5075564;28;20369;-73
2023/04/11 12:19:54;;;;;;;;;;;14.50;9.00;;;;;;5075436;28;19916;-73
2023/04/11 12:22:19;;;;;;;;;;;14.70;2.20;;;;;;5075579;28;19913;-75
2023/04/11 12:24:45;;;;;;;;;;;14.90;5.40;;;;;;5075359;28;19916;-72
2023/04/11 12:27:11;;;;;;;;;;;15.00;1.00;;;;;;5075219;28;19913;-75
2023/04/11 12:29:37;;;;;;;;;;;15.30;1.00;;;;;;5075232;28;20435;-74
2023/04/11 12:32:03;;;;;;;;;;;15.30;1.00;;;;;;5075218;28;19908;-73
2023/04/11 12:34:28;;;;;;;;;;;15.30;1.00;;;;;;5075197;28;19962;-72
2023/04/11 12:36:56;;;;;;;;;;;15.10;1.00;;;;;;5075533;28;19908;-73
2023/04/11 12:39:22;;;;;;;;;;;14.80;1.00;;;;;;5075281;28;19966;-74
2023/04/11 12:41:48;;;;;;;;;;;14.80;1.00;;;;;;5074878;28;19920;-73
2023/04/11 12:44:13;;;;;;;;;;;14.80;1.00;;;;;;5074948;28;19923;-74
2023/04/11 12:46:39;;;;;;;;;;;14.60;1.00;;;;;;5075180;28;19916;-73
2023/04/11 12:49:04;;;;;;;;;;;14.60;1.00;;;;;;5074831;28;20273;-72
2023/04/11 12:51:30;;;;;;;;;;;14.80;1.00;;;;;;5074768;28;20382;-73
2023/04/11 12:53:56;;;;;;;;;;;14.70;1.00;;;;;;5056761;28;19908;-73
2023/04/11 12:56:21;;;;;;;;;;;14.60;1.00;;;;;;5074692;28;19949;-74
2023/04/11 12:58:47;;;;;;;;;;;14.70;1.00;;;;;;5074641;28;19908;-72
2023/04/11 13:01:12;;;;;;;;;;;14.80;1.00;;;;;;5074469;28;19948;-72
2023/04/11 13:03:38;;;;;;;;;;;14.80;1.00;;;;;;5074593;28;19909;-73
2023/04/11 13:06:03;;;;;;;;;;;14.80;1.00;;;;;;5074520;28;20368;-73
2023/04/11 13:08:29;;;;;;;;;;;14.90;1.00;;;;;;5074393;28;20419;-73
2023/04/11 13:10:55;;;;;;;;;;;15.10;1.00;;;;;;5074610;28;19915;-74
2023/04/11 13:13:20;;;;;;;;;;;15.10;1.00;;;;;;5074377;28;20010;-74
2023/04/11 13:15:46;;;;;;;;;;;15.30;1.00;;;;;;5074406;28;19951;-72
2023/04/11 13:18:12;;;;;;;;;;;15.30;1.00;;;;;;5074546;28;20357;-73
2023/04/11 13:20:37;;;;;;;;;;;15.30;1.00;;;;;;5074641;28;20384;-72
2023/04/11 13:23:03;;;;;;;;;;;15.40;1.00;;;;;;5074463;28;19912;-73
2023/04/11 13:25:28;;;;;;;;;;;15.30;1.00;;;;;;5074377;28;19916;-72
2023/04/11 13:27:55;;;;;;;;;;;15.40;1.00;;;;;;5074131;28;19955;-74
2023/04/11 13:30:21;;;;;;;;;;;15.60;1.00;;;;;;5056213;28;19916;-73
2023/04/11 13:32:46;;;;;;;;;;;15.60;1.00;;;;;;5074103;28;20297;-73
2023/04/11 13:35:12;;;;;;;;;;;16.20;1.00;;;;;;5074302;28;19913;-74
2023/04/11 13:37:37;;;;;;;;;;;16.60;1.00;;;;;;5073962;28;19916;-71
2023/04/11 13:40:06;;;;;;;;;;;16.90;1.00;;;;;;5073766;28;20447;-73
2023/04/11 13:42:32;;;;;;;;;;;16.50;1.00;;;;;;5074250;28;19919;-72
2023/04/11 13:44:58;;;;;;;;;;;16.20;1.00;;;;;;5073991;28;19908;-73
2023/04/11 13:47:23;;;;;;;;;;;15.70;1.00;;;;;;5073822;28;19982;-72
2023/04/11 13:49:49;;;;;;;;;;;15.50;1.00;;;;;;5074286;28;20003;-74
2023/04/11 13:52:14;;;;;;;;;;;15.70;1.00;;;;;;5073823;28;19915;-73
2023/04/11 13:54:40;;;;;;;;;;;15.80;1.00;;;;;;5073772;28;19909;-73
2023/04/11 13:57:08;;;;;;;;;;;15.90;1.00;;;;;;5073829;28;19916;-72
2023/04/11 13:59:34;;;;;;;;;;;16.00;1.00;;;;;;5073703;28;19930;-72
2023/04/11 14:02:00;;;;;;;;;;;16.10;1.00;;;;;;5073942;28;19908;-72
2023/04/11 14:04:26;;;;;;;;;;;15.70;1.00;;;;;;5074107;28;19908;-73
2023/04/11 14:06:54;;;;;;;;;;;15.70;1.00;;;;;;5073668;28;20304;-73
2023/04/11 14:09:20;;;;;;;;;;;15.60;1.00;;;;;;5073760;28;20372;-72
2023/04/11 14:11:45;;;;;;;;;;;15.50;1.00;;;;;;5073659;28;19915;-73
2023/04/11 14:14:11;;;;;;;;;;;15.30;1.00;;;;;;5072885;28;19973;-73
2023/04/11 14:16:36;;;;;;;;;;;14.90;1.00;;;;;;5073528;28;19908;-73
2023/04/11 14:19:02;;;;;;;;;;;15.00;1.00;;;;;;5073894;28;20372;-75
2023/04/11 14:21:27;;;;;;;;;;;15.20;1.00;;;;;;5073472;28;19908;-73
2023/04/11 14:23:53;;;;;;;;;;;15.40;1.00;;;;;;5073510;28;20376;-73
2023/04/11 14:26:18;;;;;;;;;;;15.20;1.00;;;;;;5073438;28;19916;-73